createdAt,value
2023-03-04T00:00:14.441Z,-0.10
2023-03-04T00:02:42.644Z,-0.20
2023-03-04T00:05:11.212Z,-0.10
2023-03-04T00:07:39.358Z,-0.10
2023-03-04T00:10:10.395Z,-0.10
2023-03-04T00:12:38.482Z,-0.10
2023-03-04T00:15:07.515Z,-0.30
2023-03-04T00:17:35.647Z,-0.50
2023-03-04T00:20:03.778Z,-0.50
2023-03-04T00:22:31.830Z,-0.50
2023-03-04T00:24:59.905Z,-0.60
2023-03-04T00:27:29.317Z,-0.40
2023-03-04T00:29:57.950Z,-0.60
2023-03-04T00:32:26.219Z,-0.50
2023-03-04T00:34:54.311Z,-0.50
2023-03-04T00:37:22.395Z,0.00
2023-03-04T00:39:50.447Z,-0.50
2023-03-04T00:42:18.551Z,-0.50
2023-03-04T00:44:49.664Z,-0.20
2023-03-04T00:47:17.736Z,-0.60
2023-03-04T00:49:45.815Z,-0.90
2023-03-04T00:52:13.933Z,-1.20
2023-03-04T00:54:42.052Z,-0.70
2023-03-04T00:57:10.201Z,-0.70
2023-03-04T00:59:40.821Z,-0.80
2023-03-04T01:02:10.566Z,-0.80
2023-03-04T01:04:39.078Z,-0.70
2023-03-04T01:07:07.142Z,-0.70
2023-03-04T01:09:35.292Z,-0.80
2023-03-04T01:12:03.436Z,-0.80
2023-03-04T01:14:31.617Z,-0.80
2023-03-04T01:16:59.876Z,-0.80
2023-03-04T01:19:29.408Z,-0.80
2023-03-04T01:21:57.474Z,0.10
2023-03-04T01:24:25.569Z,-0.70
2023-03-04T01:26:53.613Z,-0.80
2023-03-04T01:29:21.719Z,-0.50
2023-03-04T01:31:49.963Z,-0.80
2023-03-04T01:34:18.768Z,-0.80
2023-03-04T01:36:48.216Z,-0.70
2023-03-04T01:39:16.238Z,-0.80
2023-03-04T01:41:44.357Z,-0.90
2023-03-04T01:44:13.269Z,-1.00
2023-03-04T01:46:44.992Z,-1.00
2023-03-04T01:49:17.120Z,-0.10
2023-03-04T01:51:49.420Z,-1.00
2023-03-04T01:54:17.692Z,-0.70
2023-03-04T01:56:47.295Z,-1.00
2023-03-04T01:59:17.319Z,-0.80
2023-03-04T02:01:47.079Z,-1.00
2023-03-04T02:04:16.351Z,-1.10
2023-03-04T02:06:45.616Z,-1.10
2023-03-04T02:09:15.552Z,-1.10
2023-03-04T02:11:44.622Z,-1.00
2023-03-04T02:14:13.779Z,-1.00
2023-03-04T02:16:42.065Z,-1.00
2023-03-04T02:19:20.547Z,-1.10
2023-03-04T02:21:48.622Z,-1.00
2023-03-04T02:24:27.099Z,-1.00
2023-03-04T02:26:56.617Z,-1.00
2023-03-04T02:29:24.797Z,-1.20
2023-03-04T02:31:54.909Z,-1.70
2023-03-04T02:34:25.369Z,-1.30
2023-03-04T02:36:54.840Z,-1.30
2023-03-04T02:39:31.974Z,-1.20
2023-03-04T02:42:02.890Z,-1.30
2023-03-04T02:44:32.652Z,-1.10
2023-03-04T02:47:01.324Z,-1.30
2023-03-04T02:49:32.010Z,-1.30
2023-03-04T02:52:02.468Z,-1.20
2023-03-04T02:54:30.854Z,-1.20
2023-03-04T02:57:02.259Z,-1.20
2023-03-04T02:59:30.954Z,-1.10
2023-03-04T03:01:59.118Z,-1.10
2023-03-04T03:04:27.623Z,-1.20
2023-03-04T03:06:56.089Z,-1.20
2023-03-04T03:09:24.641Z,-1.20
2023-03-04T03:11:52.700Z,-1.30
2023-03-04T03:14:22.226Z,-1.40
2023-03-04T03:16:50.326Z,-1.40
2023-03-04T03:19:18.426Z,-1.30
2023-03-04T03:21:46.529Z,-1.30
2023-03-04T03:24:15.382Z,-1.30
2023-03-04T03:26:43.523Z,-1.30
2023-03-04T03:29:11.622Z,-1.40
2023-03-04T03:31:41.164Z,-1.50
2023-03-04T03:34:09.327Z,-1.50
2023-03-04T03:36:37.541Z,-1.50
2023-03-04T03:39:05.864Z,-1.50
2023-03-04T03:41:33.951Z,-1.40
2023-03-04T03:44:02.716Z,-1.40
2023-03-04T03:46:30.966Z,-1.50
2023-03-04T03:49:00.379Z,-2.10
2023-03-04T03:51:28.715Z,-1.80
2023-03-04T03:53:56.792Z,-1.80
2023-03-04T03:56:24.838Z,-1.70
2023-03-04T03:58:53.006Z,-2.20
2023-03-04T04:01:21.065Z,-2.00
2023-03-04T04:03:49.259Z,-2.00
2023-03-04T04:06:18.845Z,-1.90
2023-03-04T04:08:46.994Z,-1.90
2023-03-04T04:11:15.308Z,-1.90
2023-03-04T04:13:43.519Z,-1.80
2023-03-04T04:16:12.198Z,-2.00
2023-03-04T04:18:40.332Z,-1.80
2023-03-04T04:21:08.506Z,-1.80
2023-03-04T04:23:37.982Z,-1.70
2023-03-04T04:26:06.349Z,-2.00
2023-03-04T04:28:34.550Z,-1.90
2023-03-04T04:31:02.637Z,-1.70
2023-03-04T04:33:30.713Z,-1.80
2023-03-04T04:35:58.795Z,-1.90
2023-03-04T04:38:26.930Z,-1.90
2023-03-04T04:40:58.669Z,-1.90
2023-03-04T04:43:27.057Z,-2.00
2023-03-04T04:45:55.190Z,-2.00
2023-03-04T04:48:23.294Z,-1.90
2023-03-04T04:50:56.693Z,-2.00
2023-03-04T04:53:24.865Z,-2.10
2023-03-04T04:55:52.998Z,-2.10
2023-03-04T04:58:22.520Z,-2.10
2023-03-04T05:00:50.721Z,-2.10
2023-03-04T05:03:19.316Z,-2.10
2023-03-04T05:05:48.171Z,-2.10
2023-03-04T05:08:16.272Z,-2.10
2023-03-04T05:10:44.391Z,-2.10
2023-03-04T05:13:12.465Z,-2.20
2023-03-04T05:15:42.044Z,-2.20
2023-03-04T05:18:10.149Z,-2.20
2023-03-04T05:20:38.257Z,-2.20
2023-03-04T05:23:06.371Z,-2.20
2023-03-04T05:25:34.470Z,-2.20
2023-03-04T05:28:02.679Z,-2.20
2023-03-04T05:30:30.712Z,-2.40
2023-03-04T05:33:00.135Z,-2.30
2023-03-04T05:35:29.146Z,-2.40
2023-03-04T05:37:57.280Z,-2.40
2023-03-04T05:40:25.858Z,-2.40
2023-03-04T05:42:54.030Z,-2.40
2023-03-04T05:45:22.115Z,-2.30
2023-03-04T05:47:50.255Z,-2.30
2023-03-04T05:50:20.828Z,-2.40
2023-03-04T05:52:48.939Z,-2.50
2023-03-04T05:55:18.002Z,-2.50
2023-03-04T05:57:46.671Z,-2.40
2023-03-04T06:00:16.575Z,-2.50
2023-03-04T06:02:45.515Z,-2.50
2023-03-04T06:05:15.014Z,-2.50
2023-03-04T06:07:45.176Z,-2.50
2023-03-04T06:10:15.769Z,-2.50
2023-03-04T06:12:44.319Z,-2.50
2023-03-04T06:15:13.249Z,-2.60
2023-03-04T06:17:42.787Z,-2.60
2023-03-04T06:20:12.383Z,-2.60
2023-03-04T06:22:40.539Z,-2.60
2023-03-04T06:25:11.028Z,-2.60
2023-03-04T06:27:39.115Z,-2.60
2023-03-04T06:30:08.532Z,-2.50
2023-03-04T06:32:36.773Z,-2.40
2023-03-04T06:35:05.309Z,-2.40
2023-03-04T06:37:33.484Z,-2.40
2023-03-04T06:40:02.024Z,-2.40
2023-03-04T06:42:31.551Z,-2.40
2023-03-04T06:44:59.644Z,-2.30
2023-03-04T06:47:28.544Z,-2.30
2023-03-04T06:49:56.611Z,-2.30
2023-03-04T06:52:24.805Z,-2.30
2023-03-04T06:54:52.944Z,-2.20
2023-03-04T06:57:21.065Z,-2.10
2023-03-04T06:59:50.488Z,-2.10
2023-03-04T07:02:18.520Z,-2.00
2023-03-04T07:04:46.611Z,-2.00
2023-03-04T07:07:14.684Z,-1.70
2023-03-04T07:09:42.804Z,-1.80
2023-03-04T07:12:10.865Z,-1.70
2023-03-04T07:14:38.913Z,-1.70
2023-03-04T07:17:08.344Z,-1.80
2023-03-04T07:19:36.432Z,-1.70
2023-03-04T07:22:04.545Z,-1.70
2023-03-04T07:24:32.610Z,-1.40
2023-03-04T07:27:00.679Z,-1.30
2023-03-04T07:29:28.862Z,-1.20
2023-03-04T07:31:57.024Z,-1.20
2023-03-04T07:34:26.593Z,-1.00
2023-03-04T07:36:54.773Z,-1.00
2023-03-04T07:39:22.891Z,-0.80
2023-03-04T07:41:50.998Z,-0.80
2023-03-04T07:44:19.102Z,-0.50
2023-03-04T07:46:47.136Z,-0.40
2023-03-04T07:49:16.809Z,-0.20
2023-03-04T07:51:46.454Z,0.00
2023-03-04T07:54:14.687Z,0.20
2023-03-04T07:56:42.806Z,0.30
2023-03-04T07:59:10.846Z,0.50
2023-03-04T08:01:39.356Z,1.60
2023-03-04T08:04:08.765Z,0.80
2023-03-04T08:06:37.335Z,0.80
2023-03-04T08:09:09.008Z,0.90
2023-03-04T08:11:38.950Z,0.90
2023-03-04T08:14:07.795Z,1.00
2023-03-04T08:16:35.883Z,0.90
2023-03-04T08:19:04.948Z,0.90
2023-03-04T08:21:33.265Z,0.90
2023-03-04T08:24:08.129Z,0.90
2023-03-04T08:26:41.831Z,0.80
2023-03-04T08:29:12.656Z,0.80
2023-03-04T08:31:40.907Z,0.70
2023-03-04T08:34:10.539Z,0.60
2023-03-04T08:36:38.751Z,0.60
2023-03-04T08:39:07.493Z,0.80
2023-03-04T08:41:36.963Z,0.50
2023-03-04T08:44:05.696Z,0.40
2023-03-04T08:46:33.796Z,0.40
2023-03-04T08:49:01.994Z,0.60
2023-03-04T08:51:30.062Z,0.60
2023-03-04T08:53:58.242Z,0.60
2023-03-04T08:56:26.427Z,0.80
2023-03-04T08:58:55.819Z,0.80
2023-03-04T09:01:23.956Z,0.70
2023-03-04T09:03:52.160Z,0.70
2023-03-04T09:06:20.575Z,0.60
2023-03-04T09:08:48.644Z,0.60
2023-03-04T09:11:16.948Z,0.60
2023-03-04T09:13:45.184Z,0.50
2023-03-04T09:16:16.206Z,0.60
2023-03-04T09:18:45.003Z,0.70
2023-03-04T09:21:13.049Z,0.70
2023-03-04T09:23:41.206Z,0.60
2023-03-04T09:26:17.330Z,0.60
2023-03-04T09:28:45.530Z,0.70
2023-03-04T09:31:16.051Z,0.80
2023-03-04T09:33:44.270Z,0.90
2023-03-04T09:36:14.654Z,1.00
2023-03-04T09:38:43.741Z,1.00
2023-03-04T09:41:17.863Z,1.30
2023-03-04T09:43:47.835Z,1.10
2023-03-04T09:46:23.714Z,1.50
2023-03-04T09:48:55.847Z,1.80
2023-03-04T09:51:31.490Z,1.50
2023-03-04T09:54:08.182Z,1.50
2023-03-04T09:56:38.606Z,1.50
2023-03-04T09:59:16.320Z,1.60
2023-03-04T10:01:50.956Z,1.70
2023-03-04T10:04:27.744Z,1.80
2023-03-04T10:06:57.122Z,1.60
2023-03-04T10:09:29.167Z,1.80
2023-03-04T10:12:03.749Z,2.10
2023-03-04T10:14:38.621Z,2.10
2023-03-04T10:17:14.587Z,1.80
2023-03-04T10:19:54.094Z,1.40
2023-03-04T10:22:28.088Z,1.30
2023-03-04T10:24:58.528Z,1.50
2023-03-04T10:27:30.171Z,1.40
2023-03-04T10:30:00.923Z,1.60
2023-03-04T10:32:30.420Z,2.80
2023-03-04T10:34:58.532Z,1.70
2023-03-04T10:37:46.248Z,1.80
2023-03-04T10:40:25.598Z,2.00
2023-03-04T10:42:54.981Z,2.00
2023-03-04T10:45:25.716Z,2.10
2023-03-04T10:47:56.522Z,2.00
2023-03-04T10:50:26.824Z,2.10
2023-03-04T10:52:56.227Z,2.30
2023-03-04T10:55:28.303Z,2.50
2023-03-04T10:57:58.298Z,2.60
2023-03-04T11:00:32.043Z,2.60
2023-03-04T11:03:30.517Z,3.20
2023-03-04T11:06:16.690Z,3.00
2023-03-04T11:08:45.102Z,3.10
2023-03-04T11:11:38.452Z,3.00
2023-03-04T11:14:18.206Z,3.00
2023-03-04T11:16:55.568Z,2.80
2023-03-04T11:19:29.094Z,3.00
2023-03-04T11:21:59.328Z,3.20
2023-03-04T11:24:30.787Z,3.90
2023-03-04T11:27:05.456Z,3.70
2023-03-04T11:29:39.140Z,3.50
2023-03-04T11:32:12.734Z,3.90
2023-03-04T11:34:48.029Z,3.90
2023-03-04T11:37:22.493Z,4.20
2023-03-04T11:39:56.014Z,4.60
2023-03-04T11:42:33.249Z,4.50
2023-03-04T11:45:01.621Z,4.30
2023-03-04T11:47:45.355Z,3.80
2023-03-04T11:50:24.450Z,3.70
2023-03-04T11:53:31.308Z,3.70
2023-03-04T11:56:14.266Z,3.90
2023-03-04T11:59:13.224Z,4.00
2023-03-04T12:01:49.037Z,4.20
2023-03-04T12:04:38.922Z,4.10
2023-03-04T12:07:26.175Z,3.90
2023-03-04T12:10:05.995Z,4.00
2023-03-04T12:12:51.504Z,3.80
2023-03-04T12:15:26.298Z,3.90
2023-03-04T12:18:17.122Z,4.20
2023-03-04T12:21:00.703Z,4.30
2023-03-04T12:23:56.331Z,4.40
2023-03-04T12:26:31.626Z,4.80
2023-03-04T12:29:08.977Z,4.30
2023-03-04T12:31:40.150Z,4.50
2023-03-04T12:34:31.851Z,4.00
2023-03-04T12:37:35.170Z,4.20
2023-03-04T12:40:21.948Z,4.30
2023-03-04T12:43:04.596Z,4.50
2023-03-04T12:45:40.506Z,4.60
2023-03-04T12:48:21.059Z,5.30
2023-03-04T12:50:59.997Z,5.20
2023-03-04T12:53:34.741Z,4.60
2023-03-04T12:56:08.592Z,4.80
2023-03-04T12:58:38.679Z,4.30
2023-03-04T13:01:16.082Z,4.30
2023-03-04T13:03:54.792Z,5.10
2023-03-04T13:06:45.332Z,4.70
2023-03-04T13:09:20.047Z,4.60
2023-03-04T13:12:03.806Z,4.70
2023-03-04T13:14:36.109Z,4.80
2023-03-04T13:17:43.415Z,4.90
2023-03-04T13:20:23.449Z,4.80
2023-03-04T13:22:59.556Z,5.10
2023-03-04T13:25:33.860Z,5.00
2023-03-04T13:28:21.498Z,5.10
2023-03-04T13:31:21.991Z,5.00
2023-03-04T13:34:02.029Z,5.10
2023-03-04T13:36:49.287Z,5.10
2023-03-04T13:39:29.608Z,5.70
2023-03-04T13:41:58.020Z,4.90
2023-03-04T13:44:49.648Z,4.70
2023-03-04T13:47:19.519Z,5.10
2023-03-04T13:49:47.823Z,4.80
2023-03-04T13:52:39.781Z,4.70
2023-03-04T13:55:35.080Z,4.60
2023-03-04T13:58:14.071Z,4.70
2023-03-04T14:00:50.438Z,5.40
2023-03-04T14:03:24.671Z,4.90
2023-03-04T14:06:19.581Z,5.00
2023-03-04T14:08:48.790Z,4.80
2023-03-04T14:11:23.048Z,4.60
2023-03-04T14:13:51.239Z,4.50
2023-03-04T14:16:24.495Z,4.80
2023-03-04T14:19:03.837Z,5.10
2023-03-04T14:21:32.543Z,4.40
2023-03-04T14:24:08.504Z,4.30
2023-03-04T14:26:36.920Z,4.10
2023-03-04T14:29:20.038Z,4.20
2023-03-04T14:31:49.668Z,4.20
2023-03-04T14:34:24.911Z,4.40
2023-03-04T14:36:53.127Z,4.70
2023-03-04T14:39:24.244Z,4.50
2023-03-04T14:41:56.648Z,4.10
2023-03-04T14:44:35.641Z,5.00
2023-03-04T14:47:12.009Z,4.70
2023-03-04T14:49:40.742Z,4.00
2023-03-04T14:52:23.973Z,4.20
2023-03-04T14:55:02.119Z,3.90
2023-03-04T14:57:34.113Z,4.00
2023-03-04T15:00:17.721Z,3.90
2023-03-04T15:02:50.898Z,3.90
2023-03-04T15:05:25.970Z,4.00
2023-03-04T15:07:57.711Z,3.60
2023-03-04T15:10:28.515Z,3.80
2023-03-04T15:13:00.940Z,3.20
2023-03-04T15:15:36.306Z,3.00
2023-03-04T15:18:32.318Z,3.30
2023-03-04T15:21:02.245Z,3.60
2023-03-04T15:23:32.090Z,3.50
2023-03-04T15:26:02.825Z,4.00
2023-03-04T15:28:35.130Z,3.80
2023-03-04T15:31:03.350Z,4.20
2023-03-04T15:33:32.774Z,3.40
2023-03-04T15:36:03.415Z,3.40
2023-03-04T15:38:31.806Z,3.40
2023-03-04T15:41:00.187Z,3.30
2023-03-04T15:43:28.298Z,3.60
2023-03-04T15:45:56.467Z,3.10
2023-03-04T15:48:24.606Z,2.90
2023-03-04T15:50:58.640Z,3.00
2023-03-04T15:53:33.970Z,2.90
2023-03-04T15:56:02.982Z,3.00
2023-03-04T15:58:34.862Z,3.20
2023-03-04T16:01:03.400Z,2.90
2023-03-04T16:03:31.758Z,4.80
2023-03-04T16:06:01.193Z,3.10
2023-03-04T16:08:29.663Z,3.80
2023-03-04T16:10:57.764Z,2.90
2023-03-04T16:13:25.922Z,3.00
2023-03-04T16:15:54.066Z,2.90
2023-03-04T16:18:23.701Z,2.80
2023-03-04T16:20:53.097Z,2.90
2023-03-04T16:23:24.322Z,2.80
2023-03-04T16:25:55.563Z,3.90
2023-03-04T16:28:23.938Z,3.20
2023-03-04T16:30:52.038Z,3.00
2023-03-04T16:33:20.161Z,3.10
2023-03-04T16:35:48.892Z,2.70
2023-03-04T16:38:26.109Z,2.40
2023-03-04T16:40:54.549Z,3.30
2023-03-04T16:43:23.666Z,2.90
2023-03-04T16:45:51.744Z,2.90
2023-03-04T16:48:20.329Z,3.90
2023-03-04T16:50:48.582Z,2.70
2023-03-04T16:53:29.923Z,4.00
2023-03-04T16:56:00.742Z,2.80
2023-03-04T16:58:28.984Z,2.90
2023-03-04T17:00:57.163Z,3.60
2023-03-04T17:03:25.298Z,3.00
2023-03-04T17:05:53.358Z,2.90
2023-03-04T17:08:21.502Z,2.90
2023-03-04T17:10:50.908Z,3.30
2023-03-04T17:13:19.044Z,2.60
2023-03-04T17:15:47.202Z,2.70
2023-03-04T17:18:15.348Z,2.70
2023-03-04T17:20:43.424Z,2.80
2023-03-04T17:23:11.510Z,2.80
2023-03-04T17:25:39.712Z,2.80
2023-03-04T17:28:09.126Z,3.20
2023-03-04T17:30:37.228Z,2.60
2023-03-04T17:33:05.335Z,2.60
2023-03-04T17:35:33.376Z,2.70
2023-03-04T17:38:01.441Z,3.00
2023-03-04T17:40:29.855Z,2.70
2023-03-04T17:42:57.964Z,2.60
2023-03-04T17:45:27.448Z,3.40
2023-03-04T17:47:55.541Z,2.80
2023-03-04T17:50:23.650Z,3.40
2023-03-04T17:52:51.677Z,3.20
2023-03-04T17:55:19.750Z,2.60
2023-03-04T17:57:47.899Z,3.10
2023-03-04T18:00:17.011Z,3.30
2023-03-04T18:02:46.539Z,3.00
2023-03-04T18:05:14.620Z,3.60
2023-03-04T18:07:42.698Z,3.00
2023-03-04T18:10:11.828Z,2.90
2023-03-04T18:12:39.977Z,3.10
2023-03-04T18:15:08.835Z,3.10
2023-03-04T18:17:36.984Z,3.10
2023-03-04T18:20:07.686Z,3.80
2023-03-04T18:22:35.760Z,3.20
2023-03-04T18:25:05.220Z,3.20
2023-03-04T18:27:33.306Z,3.20
2023-03-04T18:30:01.410Z,3.60
2023-03-04T18:32:36.308Z,3.20
2023-03-04T18:35:15.737Z,3.00
2023-03-04T18:37:45.311Z,3.00
2023-03-04T18:40:14.628Z,3.20
2023-03-04T18:42:44.218Z,3.00
2023-03-04T18:45:13.164Z,2.80
2023-03-04T18:47:42.593Z,2.80
2023-03-04T18:50:11.987Z,2.70
2023-03-04T18:52:41.612Z,2.60
2023-03-04T18:55:11.256Z,2.50
2023-03-04T18:57:40.094Z,2.50
2023-03-04T19:00:30.429Z,2.50
2023-03-04T19:03:02.208Z,2.60
2023-03-04T19:05:32.755Z,2.60
2023-03-04T19:08:02.286Z,2.80
2023-03-04T19:10:30.657Z,2.90
2023-03-04T19:12:59.629Z,3.40
2023-03-04T19:15:28.267Z,2.50
2023-03-04T19:17:56.429Z,3.00
2023-03-04T19:20:24.554Z,3.00
2023-03-04T19:22:52.827Z,2.40
2023-03-04T19:25:22.355Z,2.60
2023-03-04T19:27:51.361Z,3.20
2023-03-04T19:30:20.107Z,2.80
2023-03-04T19:32:49.063Z,3.10
2023-03-04T19:35:17.516Z,2.90
2023-03-04T19:37:45.673Z,4.80
2023-03-04T19:40:14.233Z,3.60
2023-03-04T19:42:43.814Z,3.00
2023-03-04T19:45:12.454Z,2.70
2023-03-04T19:47:41.240Z,2.80
2023-03-04T19:50:13.281Z,3.40
2023-03-04T19:52:41.640Z,2.90
2023-03-04T19:55:12.769Z,2.40
2023-03-04T19:57:42.269Z,3.00
2023-03-04T20:00:13.809Z,2.60
2023-03-04T20:02:43.880Z,3.10
2023-03-04T20:05:12.394Z,2.80
2023-03-04T20:07:40.881Z,2.60
2023-03-04T20:10:10.677Z,3.00
2023-03-04T20:12:38.771Z,3.00
2023-03-04T20:15:08.892Z,4.90
2023-03-04T20:17:38.398Z,3.10
2023-03-04T20:20:10.586Z,2.70
2023-03-04T20:22:39.477Z,3.00
2023-03-04T20:25:08.161Z,3.10
2023-03-04T20:27:36.283Z,3.00
2023-03-04T20:30:04.748Z,3.50
2023-03-04T20:32:33.155Z,3.00
2023-03-04T20:35:02.721Z,2.60
2023-03-04T20:37:34.509Z,3.10
2023-03-04T20:40:02.689Z,2.70
2023-03-04T20:42:33.939Z,2.80
2023-03-04T20:45:02.117Z,3.00
2023-03-04T20:47:31.255Z,3.20
2023-03-04T20:49:59.373Z,2.90
2023-03-04T20:52:28.859Z,2.80
2023-03-04T20:54:56.992Z,2.80
2023-03-04T20:57:25.220Z,3.10
2023-03-04T20:59:53.460Z,2.80
2023-03-04T21:02:23.450Z,2.50
2023-03-04T21:04:51.578Z,3.50
2023-03-04T21:07:19.739Z,2.30
2023-03-04T21:09:49.329Z,2.40
2023-03-04T21:12:17.437Z,3.40
2023-03-04T21:14:45.837Z,5.20
2023-03-04T21:17:14.246Z,2.60
2023-03-04T21:19:44.181Z,3.00
2023-03-04T21:22:15.773Z,3.10
2023-03-04T21:24:45.472Z,4.20
2023-03-04T21:27:16.618Z,2.60
2023-03-04T21:29:45.039Z,3.10
2023-03-04T21:32:24.374Z,2.70
2023-03-04T21:34:53.804Z,2.90
2023-03-04T21:37:22.548Z,2.40
2023-03-04T21:39:50.736Z,3.20
2023-03-04T21:42:20.551Z,4.10
2023-03-04T21:44:50.908Z,2.60
2023-03-04T21:47:19.819Z,2.70
2023-03-04T21:49:48.520Z,2.90
2023-03-04T21:52:17.180Z,3.00
2023-03-04T21:54:45.391Z,4.00
2023-03-04T21:57:14.294Z,3.00
2023-03-04T21:59:44.122Z,3.10
2023-03-04T22:02:15.929Z,3.10
2023-03-04T22:04:44.288Z,2.90
2023-03-04T22:07:12.745Z,2.50
2023-03-04T22:09:40.897Z,3.10
2023-03-04T22:12:09.288Z,3.10
2023-03-04T22:14:38.685Z,3.20
2023-03-04T22:17:08.324Z,3.20
2023-03-04T22:19:36.575Z,3.70
2023-03-04T22:22:04.723Z,2.90
2023-03-04T22:24:32.889Z,3.10
2023-03-04T22:27:00.969Z,2.50
2023-03-04T22:29:29.183Z,3.10
2023-03-04T22:31:57.381Z,3.00
2023-03-04T22:34:26.967Z,2.70
2023-03-04T22:36:55.107Z,2.90
2023-03-04T22:39:23.547Z,2.50
2023-03-04T22:41:51.815Z,3.60
2023-03-04T22:44:20.071Z,2.40
2023-03-04T22:46:48.298Z,2.80
2023-03-04T22:49:16.418Z,3.10
2023-03-04T22:51:46.248Z,3.80
2023-03-04T22:54:15.322Z,3.70
2023-03-04T22:56:43.630Z,3.20
2023-03-04T22:59:12.319Z,3.30
2023-03-04T23:01:40.530Z,3.10
2023-03-04T23:04:08.719Z,3.10
2023-03-04T23:06:37.718Z,4.30
2023-03-04T23:09:07.878Z,2.80
2023-03-04T23:11:36.995Z,2.40
2023-03-04T23:14:07.293Z,2.90
2023-03-04T23:16:38.622Z,3.50
2023-03-04T23:19:07.939Z,3.70
2023-03-04T23:21:36.655Z,2.50
2023-03-04T23:24:07.814Z,2.70
2023-03-04T23:26:38.693Z,3.00
2023-03-04T23:29:08.828Z,3.20
2023-03-04T23:31:37.244Z,3.10
2023-03-04T23:34:07.040Z,3.60
2023-03-04T23:36:38.241Z,3.70
2023-03-04T23:39:08.750Z,3.10
2023-03-04T23:41:37.329Z,2.90
2023-03-04T23:44:06.240Z,3.10
2023-03-04T23:46:34.762Z,3.70
2023-03-04T23:49:02.940Z,3.00
2023-03-04T23:51:31.913Z,3.00
2023-03-04T23:54:00.711Z,2.70
2023-03-04T23:56:31.969Z,2.50
2023-03-04T23:59:01.526Z,2.80
